KBGE/BGE METAR and TAF weather

Enter ICAO airport designator
Station Type Date Time Source
KBGE METAR 2021/01/16 02:35 UTC NOAA

KBGE 160235Z AUTO 24006KT 10SM CLR 08/01 A2984 RMK AO2 T00760009


Station Type Date Time Source
KBGE Decoded METAR 2021/01/16 02:35 UTC NOAA

Bainbridge, Decatur County Industrial Air Park Airport, GA, United States (KBGE) 30-58N 084-38W
Jan 15, 2021 - 09:35 PM EST / 2021.01.16 0235 UTC
Wind: from the WSW (240 degrees) at 7 MPH (6 KT):0
Visibility: 10 mile(s):0
Sky conditions: clear
Temperature: 45.7 F (7.6 C)
Dew Point: 33.6 F (0.9 C)
Relative Humidity: 62%
Pressure (altimeter): 29.84 in. Hg (1010 hPa)
ob: KBGE 160235Z AUTO 24006KT 10SM CLR 08/01 A2984 RMK AO2 T00760009
cycle: 2

Station Type Date Time Source
KBGE TAF UTC NOAA

Error!

Example: see airport list